Time;durP1;ratioP1;P1;durP2;ratioP2;P2;SDS_P1;SDS_P2;PMS_P1;PMS_P2;Temp;Humidity;BMP_temperature;BMP_pressure;BME280_temperature;BME280_humidity;BME280_pressure;Samples;Min_cycle;Max_cycle;Signal;HPM_P1;HPM_P2
2022/01/01 00:00:40;;;;;;;103.45;59.97;;;;;;;;;;5085980;28;20089;-61
2022/01/01 00:03:06;;;;;;;113.88;65.25;;;;;;;;;;5086305;28;20028;-63
2022/01/01 00:05:31;;;;;;;105.07;60.40;;;;;;;;;;5085844;28;20035;-61
2022/01/01 00:07:59;;;;;;;100.13;53.95;;;;;;;;;;5089821;28;20121;-61
2022/01/01 00:10:24;;;;;;;101.10;56.45;;;;;;;;;;5072088;28;20085;-61
2022/01/01 00:12:50;;;;;;;109.30;62.13;;;;;;;;;;5090630;28;20024;-61
2022/01/01 00:15:16;;;;;;;102.68;60.25;;;;;;;;;;5072284;28;20111;-61
2022/01/01 00:17:42;;;;;;;111.03;61.95;;;;;;;;;;5089637;28;20044;-61
2022/01/01 00:20:09;;;;;;;97.15;51.63;;;;;;;;;;5070141;28;20419;-62
2022/01/01 00:22:38;;;;;;;71.35;36.33;;;;;;;;;;5070451;28;20089;-60
2022/01/01 00:25:04;;;;;;;69.60;39.10;;;;;;;;;;5073400;28;20089;-60
2022/01/01 00:27:30;;;;;;;56.53;33.17;;;;;;;;;;5091483;28;20032;-60
2022/01/01 00:29:55;;;;;;;66.60;34.75;;;;;;;;;;5085738;28;20035;-60
2022/01/01 00:32:21;;;;;;;59.88;32.00;;;;;;;;;;5071196;28;20392;-60
2022/01/01 00:34:50;;;;;;;65.38;32.38;;;;;;;;;;5070993;28;20028;-60
2022/01/01 00:37:16;;;;;;;54.85;29.48;;;;;;;;;;5071448;28;20060;-60
2022/01/01 00:39:41;;;;;;;52.47;29.10;;;;;;;;;;5073274;28;20066;-60
2022/01/01 00:42:07;;;;;;;60.13;31.15;;;;;;;;;;5090760;28;20044;-62
2022/01/01 00:44:32;;;;;;;51.35;29.65;;;;;;;;;;5090492;28;20483;-61
2022/01/01 00:46:58;;;;;;;60.10;30.38;;;;;;;;;;5072487;28;20547;-60
2022/01/01 00:49:24;;;;;;;59.53;29.70;;;;;;;;;;5090278;28;20036;-60
2022/01/01 00:51:49;;;;;;;55.92;27.30;;;;;;;;;;5089385;28;20024;-62
2022/01/01 00:54:15;;;;;;;61.72;28.95;;;;;;;;;;5080432;28;20146;-61
2022/01/01 00:56:40;;;;;;;59.65;29.00;;;;;;;;;;5083864;28;20047;-64
2022/01/01 00:59:06;;;;;;;52.90;26.13;;;;;;;;;;5089730;28;20047;-61
2022/01/01 01:01:32;;;;;;;55.63;27.70;;;;;;;;;;5089551;28;20035;-62
2022/01/01 01:03:57;;;;;;;57.67;27.58;;;;;;;;;;5069052;28;20037;-62
2022/01/01 01:06:23;;;;;;;55.50;27.65;;;;;;;;;;5088980;28;20059;-61
2022/01/01 01:08:49;;;;;;;61.38;28.65;;;;;;;;;;5090319;28;20089;-62
2022/01/01 01:11:15;;;;;;;61.22;29.85;;;;;;;;;;5064963;28;20037;-61
2022/01/01 01:13:44;;;;;;;69.10;32.30;;;;;;;;;;5085014;28;20035;-59
2022/01/01 01:16:09;;;;;;;70.07;35.30;;;;;;;;;;5088821;28;20032;-60
2022/01/01 01:18:35;;;;;;;77.47;35.67;;;;;;;;;;5088844;28;20054;-61
2022/01/01 01:21:00;;;;;;;83.80;39.03;;;;;;;;;;5087824;28;20034;-61
2022/01/01 01:23:26;;;;;;;83.75;39.97;;;;;;;;;;5067595;28;20040;-60
2022/01/01 01:25:54;;;;;;;101.38;48.58;;;;;;;;;;5088112;28;20559;-62
2022/01/01 01:28:19;;;;;;;107.72;49.88;;;;;;;;;;5070871;28;20122;-61
2022/01/01 01:30:46;;;;;;;108.68;50.63;;;;;;;;;;5088887;28;20450;-61
2022/01/01 01:33:11;;;;;;;104.90;48.05;;;;;;;;;;5089198;28;20387;-60
2022/01/01 01:35:37;;;;;;;109.55;50.25;;;;;;;;;;5090389;28;20040;-61
2022/01/01 01:38:03;;;;;;;95.13;43.03;;;;;;;;;;5072281;28;20494;-61
2022/01/01 01:40:29;;;;;;;94.25;47.42;;;;;;;;;;5090256;28;20032;-61
2022/01/01 01:42:54;;;;;;;111.45;51.40;;;;;;;;;;5071786;28;20133;-60
2022/01/01 01:45:22;;;;;;;103.20;48.53;;;;;;;;;;5090156;28;20028;-59
2022/01/01 01:47:48;;;;;;;112.93;51.72;;;;;;;;;;5071019;28;20036;-61
2022/01/01 01:50:14;;;;;;;117.68;55.15;;;;;;;;;;5054837;28;20032;-60
2022/01/01 01:52:42;;;;;;;104.07;47.38;;;;;;;;;;5089916;28;20376;-60
2022/01/01 01:55:08;;;;;;;127.43;57.80;;;;;;;;;;5057997;28;20028;-61
2022/01/01 01:57:35;;;;;;;129.80;60.55;;;;;;;;;;5064441;28;20024;-60
2022/01/01 02:00:09;;;;;;;120.32;55.00;;;;;;;;;;5072501;28;20043;-61
2022/01/01 02:02:39;;;;;;;103.22;48.05;;;;;;;;;;5074066;28;20052;-61
2022/01/01 02:05:06;;;;;;;88.15;43.20;;;;;;;;;;5056138;28;20044;-60
2022/01/01 02:07:34;;;;;;;79.43;38.50;;;;;;;;;;5056058;28;20037;-62
2022/01/01 02:10:01;;;;;;;70.63;38.50;;;;;;;;;;5072772;28;20051;-60
2022/01/01 02:12:27;;;;;;;64.88;34.75;;;;;;;;;;5072480;28;20361;-61
2022/01/01 02:17:22;;;;;;;69.07;35.28;;;;;;;;;;5072407;28;20047;-60
2022/01/01 02:19:54;;;;;;;54.35;30.88;;;;;;;;;;5089495;28;20388;-61
2022/01/01 02:22:26;;;;;;;59.63;31.13;;;;;;;;;;5073532;28;20094;-61
2022/01/01 02:24:59;;;;;;;54.55;29.23;;;;;;;;;;5055863;28;20090;-60
2022/01/01 02:27:25;;;;;;;50.67;29.05;;;;;;;;;;5055498;28;20032;-60
2022/01/01 02:29:53;;;;;;;52.17;28.13;;;;;;;;;;5072115;28;20045;-61
2022/01/01 02:32:19;;;;;;;51.85;29.60;;;;;;;;;;5073385;28;20028;-60
2022/01/01 02:34:50;;;;;;;49.83;26.10;;;;;;;;;;5088862;28;20464;-63
2022/01/01 02:37:16;;;;;;;45.75;27.00;;;;;;;;;;5072157;28;20035;-60
2022/01/01 02:39:41;;;;;;;53.72;27.10;;;;;;;;;;5073183;28;20086;-61
2022/01/01 02:42:08;;;;;;;47.05;27.25;;;;;;;;;;5073295;28;20395;-61
2022/01/01 02:44:33;;;;;;;44.20;22.55;;;;;;;;;;5055188;28;20090;-60
2022/01/01 02:46:59;;;;;;;47.53;25.38;;;;;;;;;;5072056;28;20033;-60
2022/01/01 02:49:24;;;;;;;46.13;26.00;;;;;;;;;;5072844;28;20459;-60
2022/01/01 02:51:50;;;;;;;49.47;25.58;;;;;;;;;;5088649;28;20040;-61
2022/01/01 02:54:15;;;;;;;46.20;24.30;;;;;;;;;;5071869;28;20025;-60
2022/01/01 02:56:41;;;;;;;51.83;27.23;;;;;;;;;;5073118;28;20064;-60
2022/01/01 02:59:06;;;;;;;50.50;25.08;;;;;;;;;;5073003;28;20024;-63
2022/01/01 03:01:32;;;;;;;46.15;24.13;;;;;;;;;;5073030;28;20032;-60
2022/01/01 03:03:57;;;;;;;48.72;24.70;;;;;;;;;;5072446;28;20036;-60
2022/01/01 03:06:22;;;;;;;46.95;24.88;;;;;;;;;;5072938;28;20048;-60
2022/01/01 03:08:50;;;;;;;53.28;26.00;;;;;;;;;;5073021;28;20400;-60
2022/01/01 03:11:16;;;;;;;54.00;26.38;;;;;;;;;;5054887;28;20033;-61
2022/01/01 03:13:42;;;;;;;52.47;27.10;;;;;;;;;;5073103;28;20369;-61
2022/01/01 03:16:07;;;;;;;57.80;27.92;;;;;;;;;;5072826;28;20033;-61
2022/01/01 03:18:33;;;;;;;58.00;26.50;;;;;;;;;;5072895;28;20040;-62
2022/01/01 03:20:58;;;;;;;61.50;26.77;;;;;;;;;;5072585;28;20037;-59
2022/01/01 03:23:23;;;;;;;54.30;25.58;;;;;;;;;;5071571;28;20037;-60
2022/01/01 03:25:49;;;;;;;56.22;26.00;;;;;;;;;;5071353;28;20047;-60
2022/01/01 03:28:14;;;;;;;53.83;25.63;;;;;;;;;;5072714;28;20051;-60
2022/01/01 03:30:40;;;;;;;57.78;27.52;;;;;;;;;;5071286;28;20487;-60
2022/01/01 03:33:06;;;;;;;62.22;27.83;;;;;;;;;;5072657;28;20040;-60
2022/01/01 03:35:33;;;;;;;60.08;27.50;;;;;;;;;;5071293;28;20033;-62
2022/01/01 03:37:58;;;;;;;69.72;28.20;;;;;;;;;;5072435;28;20498;-60
2022/01/01 03:40:23;;;;;;;68.70;30.08;;;;;;;;;;5072474;28;20028;-60
2022/01/01 03:42:49;;;;;;;66.95;30.17;;;;;;;;;;5071231;28;20119;-61
2022/01/01 03:45:14;;;;;;;71.72;31.13;;;;;;;;;;5072494;28;20024;-60
2022/01/01 03:47:40;;;;;;;70.47;30.95;;;;;;;;;;5071098;28;20372;-60
2022/01/01 03:50:05;;;;;;;68.65;31.38;;;;;;;;;;5072087;28;20032;-61
2022/01/01 03:52:31;;;;;;;82.88;32.15;;;;;;;;;;5054415;28;20484;-60
2022/01/01 03:54:56;;;;;;;71.85;33.42;;;;;;;;;;5072182;28;20502;-60
2022/01/01 03:57:22;;;;;;;85.82;35.00;;;;;;;;;;5072202;28;20119;-60
2022/01/01 03:59:47;;;;;;;75.35;32.75;;;;;;;;;;5072076;28;20131;-60
2022/01/01 04:02:13;;;;;;;75.28;31.95;;;;;;;;;;5070426;28;20094;-60
2022/01/01 04:04:39;;;;;;;76.10;32.33;;;;;;;;;;5048992;28;20119;-63
2022/01/01 04:07:04;;;;;;;78.97;33.47;;;;;;;;;;5050390;28;20135;-60
2022/01/01 04:09:30;;;;;;;86.93;35.10;;;;;;;;;;5068285;28;20031;-61
2022/01/01 04:11:55;;;;;;;75.15;36.50;;;;;;;;;;5050260;28;20516;-60
2022/01/01 04:14:21;;;;;;;80.60;36.47;;;;;;;;;;5068064;28;20111;-66
2022/01/01 04:16:47;;;;;;;93.90;40.60;;;;;;;;;;5067053;28;20037;-61
2022/01/01 04:19:13;;;;;;;85.80;39.90;;;;;;;;;;5050071;28;20491;-59
2022/01/01 04:21:38;;;;;;;88.40;40.33;;;;;;;;;;5068071;28;20040;-60
2022/01/01 04:24:04;;;;;;;93.60;44.88;;;;;;;;;;5067948;28;20387;-61
2022/01/01 04:26:29;;;;;;;98.28;46.63;;;;;;;;;;5068350;28;20036;-61
2022/01/01 04:28:55;;;;;;;100.30;47.47;;;;;;;;;;5067986;28;20071;-61
2022/01/01 04:31:20;;;;;;;102.18;47.80;;;;;;;;;;5068022;28;20036;-60
2022/01/01 04:33:46;;;;;;;105.00;52.03;;;;;;;;;;5067762;28;20023;-61
2022/01/01 04:36:12;;;;;;;107.10;51.60;;;;;;;;;;5067815;28;20048;-67
2022/01/01 04:38:40;;;;;;;105.55;52.33;;;;;;;;;;5050028;28;20038;-61
2022/01/01 04:41:07;;;;;;;103.95;52.60;;;;;;;;;;5067870;28;20032;-61
2022/01/01 04:43:33;;;;;;;111.25;54.80;;;;;;;;;;5032895;28;20080;-63
2022/01/01 04:45:59;;;;;;;113.60;55.97;;;;;;;;;;5049632;28;20059;-60
2022/01/01 04:48:24;;;;;;;109.18;56.40;;;;;;;;;;5067954;28;20090;-61
2022/01/01 04:50:50;;;;;;;129.75;52.00;;;;;;;;;;5067446;28;20045;-60
2022/01/01 04:53:17;;;;;;;89.22;47.70;;;;;;;;;;5067599;28;20016;-61
2022/01/01 04:55:46;;;;;;;108.85;49.92;;;;;;;;;;5049388;28;20131;-64
2022/01/01 04:58:11;;;;;;;107.38;53.33;;;;;;;;;;5049982;28;20048;-60
2022/01/01 05:00:37;;;;;;;96.93;49.80;;;;;;;;;;5049156;28;20052;-60
2022/01/01 05:03:02;;;;;;;92.72;46.35;;;;;;;;;;5067502;28;20035;-60
2022/01/01 05:05:28;;;;;;;95.97;46.63;;;;;;;;;;5073703;28;20044;-61
2022/01/01 05:07:53;;;;;;;97.85;46.38;;;;;;;;;;5052488;28;20047;-60
2022/01/01 05:10:19;;;;;;;96.43;48.30;;;;;;;;;;5087212;28;20024;-66
2022/01/01 05:12:44;;;;;;;93.03;46.72;;;;;;;;;;5087634;28;20040;-60
2022/01/01 05:15:10;;;;;;;97.95;45.72;;;;;;;;;;5087388;28;20032;-60
2022/01/01 05:17:35;;;;;;;97.00;46.78;;;;;;;;;;5087577;28;20040;-60
2022/01/01 05:20:01;;;;;;;109.68;46.90;;;;;;;;;;5087234;28;20036;-60
2022/01/01 05:22:26;;;;;;;104.80;45.67;;;;;;;;;;5087589;28;20115;-62
2022/01/01 05:24:56;;;;;;;94.10;43.80;;;;;;;;;;5086939;28;20153;-60
2022/01/01 05:27:22;;;;;;;92.57;43.80;;;;;;;;;;5088803;28;20039;-60
2022/01/01 05:29:47;;;;;;;96.40;46.90;;;;;;;;;;5072329;28;20391;-64
2022/01/01 05:32:12;;;;;;;106.18;46.03;;;;;;;;;;5090944;28;20040;-60
2022/01/01 05:34:38;;;;;;;91.15;44.38;;;;;;;;;;5090440;28;20028;-64
2022/01/01 05:37:03;;;;;;;93.65;44.22;;;;;;;;;;5072788;28;20036;-66
2022/01/01 05:39:29;;;;;;;92.43;40.45;;;;;;;;;;5090830;28;20028;-63
2022/01/01 05:41:54;;;;;;;81.97;42.22;;;;;;;;;;5090589;28;20047;-62
2022/01/01 05:44:20;;;;;;;86.35;41.47;;;;;;;;;;5072533;28;20016;-63
2022/01/01 05:46:46;;;;;;;90.30;41.38;;;;;;;;;;5072320;28;20914;-64
2022/01/01 05:49:11;;;;;;;95.15;42.92;;;;;;;;;;5090704;28;20039;-61
2022/01/01 05:51:37;;;;;;;90.65;41.85;;;;;;;;;;5072634;28;20028;-64
2022/01/01 05:54:02;;;;;;;88.43;40.75;;;;;;;;;;5090876;28;20031;-61
2022/01/01 05:56:28;;;;;;;94.47;45.55;;;;;;;;;;5090619;28;20034;-61
2022/01/01 05:58:53;;;;;;;90.05;42.97;;;;;;;;;;5090121;28;20115;-60
2022/01/01 06:01:18;;;;;;;86.65;43.67;;;;;;;;;;5090619;28;20097;-60
2022/01/01 06:03:44;;;;;;;104.70;46.38;;;;;;;;;;5090357;28;20028;-60
2022/01/01 06:06:09;;;;;;;96.78;46.58;;;;;;;;;;5090249;28;20040;-60
2022/01/01 06:08:35;;;;;;;91.00;44.88;;;;;;;;;;5090450;28;20032;-60
2022/01/01 06:11:01;;;;;;;100.00;48.08;;;;;;;;;;5090136;28;20043;-63
2022/01/01 06:13:27;;;;;;;95.00;48.10;;;;;;;;;;5072285;28;20429;-67
2022/01/01 06:15:52;;;;;;;97.95;46.92;;;;;;;;;;5072262;28;20032;-61
2022/01/01 06:18:18;;;;;;;96.72;47.35;;;;;;;;;;5090289;28;20028;-59
2022/01/01 06:20:43;;;;;;;90.85;45.92;;;;;;;;;;5071147;28;20079;-60
2022/01/01 06:23:09;;;;;;;101.35;47.70;;;;;;;;;;5088907;28;20032;-60
2022/01/01 06:25:35;;;;;;;98.15;47.13;;;;;;;;;;5089961;28;20040;-62
2022/01/01 06:28:00;;;;;;;95.82;47.17;;;;;;;;;;5055560;28;20123;-62
2022/01/01 06:30:32;;;;;;;100.68;47.25;;;;;;;;;;5089956;28;20027;-60
2022/01/01 06:32:58;;;;;;;87.70;46.55;;;;;;;;;;5090144;28;20074;-61
2022/01/01 06:35:23;;;;;;;93.25;47.63;;;;;;;;;;5089803;28;20059;-66
2022/01/01 06:37:49;;;;;;;95.30;47.17;;;;;;;;;;5071690;28;20391;-61
2022/01/01 06:40:14;;;;;;;91.88;46.47;;;;;;;;;;5089210;28;20032;-65
2022/01/01 06:42:40;;;;;;;96.07;46.95;;;;;;;;;;5071618;28;20123;-61
2022/01/01 06:45:05;;;;;;;84.63;39.60;;;;;;;;;;5089546;28;20040;-63
2022/01/01 06:47:30;;;;;;;79.15;37.42;;;;;;;;;;5090100;28;20040;-60
2022/01/01 06:49:56;;;;;;;73.90;32.00;;;;;;;;;;5071399;28;20096;-62
2022/01/01 06:52:21;;;;;;;63.97;30.60;;;;;;;;;;5088581;28;20475;-61
2022/01/01 06:54:47;;;;;;;56.38;29.02;;;;;;;;;;5089067;28;20428;-60
2022/01/01 06:57:12;;;;;;;61.55;30.00;;;;;;;;;;5089546;28;20531;-60
2022/01/01 06:59:37;;;;;;;60.10;30.42;;;;;;;;;;5071691;28;20028;-59
2022/01/01 07:02:03;;;;;;;64.38;30.23;;;;;;;;;;5089726;28;20502;-59
2022/01/01 07:04:28;;;;;;;65.07;29.83;;;;;;;;;;5071193;28;20085;-60
2022/01/01 07:06:54;;;;;;;59.53;29.65;;;;;;;;;;5089120;28;20103;-62
2022/01/01 07:09:19;;;;;;;63.38;30.88;;;;;;;;;;5089464;28;20360;-60
2022/01/01 07:11:45;;;;;;;64.43;32.38;;;;;;;;;;5089436;28;20174;-60
2022/01/01 07:14:11;;;;;;;59.35;31.90;;;;;;;;;;5071389;28;20493;-61
2022/01/01 07:16:36;;;;;;;64.30;30.52;;;;;;;;;;5070640;28;20032;-60
2022/01/01 07:19:01;;;;;;;61.47;32.10;;;;;;;;;;5089481;28;20465;-60
2022/01/01 07:21:27;;;;;;;61.25;31.27;;;;;;;;;;5070911;28;20561;-60
2022/01/01 07:23:53;;;;;;;57.22;30.35;;;;;;;;;;5070900;28;20051;-59
2022/01/01 07:26:18;;;;;;;49.25;28.77;;;;;;;;;;5089189;28;20123;-63
2022/01/01 07:28:44;;;;;;;52.33;29.00;;;;;;;;;;5088819;28;20035;-60
2022/01/01 07:31:10;;;;;;;55.58;30.23;;;;;;;;;;5088212;28;20016;-60
2022/01/01 07:33:35;;;;;;;58.20;30.27;;;;;;;;;;5088932;28;20045;-60
2022/01/01 07:36:01;;;;;;;54.70;28.85;;;;;;;;;;5088712;28;20032;-61
2022/01/01 07:38:26;;;;;;;54.65;29.77;;;;;;;;;;5088814;28;20115;-59
2022/01/01 07:40:52;;;;;;;51.00;28.10;;;;;;;;;;5088602;28;20475;-60
2022/01/01 07:43:17;;;;;;;50.33;28.75;;;;;;;;;;5088314;28;20041;-61
2022/01/01 07:45:43;;;;;;;47.75;27.88;;;;;;;;;;5085627;28;20380;-59
2022/01/01 07:48:09;;;;;;;54.65;29.00;;;;;;;;;;5088978;28;20055;-60
2022/01/01 07:50:35;;;;;;;55.22;30.52;;;;;;;;;;5086022;28;20036;-60
2022/01/01 07:53:01;;;;;;;45.28;26.63;;;;;;;;;;5070774;28;20044;-60
2022/01/01 07:55:26;;;;;;;48.53;27.08;;;;;;;;;;5088259;28;20027;-60
2022/01/01 07:57:52;;;;;;;41.65;25.48;;;;;;;;;;5087839;28;20046;-60
2022/01/01 08:00:17;;;;;;;46.20;25.90;;;;;;;;;;5088533;28;20063;-60
2022/01/01 08:02:43;;;;;;;46.72;26.25;;;;;;;;;;5088381;28;20067;-60
2022/01/01 08:05:09;;;;;;;44.63;26.55;;;;;;;;;;5086807;28;20032;-60
2022/01/01 08:07:35;;;;;;;46.38;25.70;;;;;;;;;;5088012;28;20119;-59
2022/01/01 08:10:00;;;;;;;41.55;24.90;;;;;;;;;;5088295;28;20127;-60
2022/01/01 08:12:26;;;;;;;38.55;23.80;;;;;;;;;;5088187;28;20062;-60
2022/01/01 08:14:54;;;;;;;41.30;23.52;;;;;;;;;;5088425;28;20468;-60
2022/01/01 08:17:20;;;;;;;43.78;24.17;;;;;;;;;;5088385;28;20119;-60
2022/01/01 08:19:46;;;;;;;37.65;23.40;;;;;;;;;;5088298;28;20107;-61
2022/01/01 08:22:13;;;;;;;40.88;23.98;;;;;;;;;;5070293;28;20693;-62
2022/01/01 08:24:39;;;;;;;38.22;22.80;;;;;;;;;;5088134;28;20094;-59
2022/01/01 08:27:05;;;;;;;37.05;22.58;;;;;;;;;;5087957;28;20467;-61
2022/01/01 08:29:31;;;;;;;35.38;22.13;;;;;;;;;;5088476;28;20148;-60
2022/01/01 08:31:57;;;;;;;36.95;22.52;;;;;;;;;;5088008;28;20047;-61
2022/01/01 08:34:23;;;;;;;37.72;23.10;;;;;;;;;;5087832;28;20637;-60
2022/01/01 08:36:48;;;;;;;36.72;22.27;;;;;;;;;;5087787;28;20048;-60
2022/01/01 08:39:14;;;;;;;34.58;22.17;;;;;;;;;;5088332;28;20047;-60
2022/01/01 08:41:40;;;;;;;31.60;20.45;;;;;;;;;;5087876;28;20471;-60
2022/01/01 08:44:05;;;;;;;36.90;22.95;;;;;;;;;;5086715;28;20174;-61
2022/01/01 08:46:31;;;;;;;40.60;23.13;;;;;;;;;;5068776;28;20031;-61
2022/01/01 08:48:56;;;;;;;38.05;23.88;;;;;;;;;;5086458;28;20398;-61
2022/01/01 08:51:22;;;;;;;38.65;22.65;;;;;;;;;;5086489;28;20055;-61
2022/01/01 08:53:48;;;;;;;33.88;21.15;;;;;;;;;;5087143;28;20028;-61
2022/01/01 08:56:13;;;;;;;36.13;22.80;;;;;;;;;;5086030;28;20051;-61
2022/01/01 08:58:39;;;;;;;35.28;21.90;;;;;;;;;;5086910;28;20051;-60
2022/01/01 09:01:05;;;;;;;35.90;21.40;;;;;;;;;;5087226;28;20032;-61
2022/01/01 09:03:31;;;;;;;34.15;19.98;;;;;;;;;;5086747;28;20062;-61
2022/01/01 09:05:56;;;;;;;37.15;21.13;;;;;;;;;;5087100;28;20072;-60
2022/01/01 09:08:22;;;;;;;35.22;20.33;;;;;;;;;;5087445;28;20485;-62
2022/01/01 09:10:47;;;;;;;35.45;21.40;;;;;;;;;;5069393;28;20493;-61
2022/01/01 09:13:12;;;;;;;36.70;20.38;;;;;;;;;;5087673;28;20043;-61
2022/01/01 09:15:38;;;;;;;36.58;21.08;;;;;;;;;;5087533;28;20028;-60
2022/01/01 09:18:03;;;;;;;35.78;21.33;;;;;;;;;;5087574;28;20119;-60
2022/01/01 09:20:29;;;;;;;39.03;20.48;;;;;;;;;;5087250;28;20126;-60
2022/01/01 09:22:54;;;;;;;36.28;21.08;;;;;;;;;;5087196;28;20020;-60
2022/01/01 09:25:19;;;;;;;37.10;21.85;;;;;;;;;;5069052;28;20036;-61
2022/01/01 09:27:45;;;;;;;32.55;19.10;;;;;;;;;;5069901;28;20047;-60
2022/01/01 09:30:11;;;;;;;37.15;20.95;;;;;;;;;;5087175;28;20028;-61
2022/01/01 09:32:36;;;;;;;37.92;21.15;;;;;;;;;;5087381;28;20032;-60
2022/01/01 09:35:03;;;;;;;36.70;21.25;;;;;;;;;;5087197;28;20475;-62
2022/01/01 09:37:32;;;;;;;37.63;21.23;;;;;;;;;;5087509;28;20788;-60
2022/01/01 09:39:58;;;;;;;38.38;20.30;;;;;;;;;;5087508;28;20035;-61
2022/01/01 09:42:23;;;;;;;39.33;21.52;;;;;;;;;;5087025;28;20062;-61
2022/01/01 09:44:51;;;;;;;34.97;20.48;;;;;;;;;;5086241;28;20445;-61
2022/01/01 09:47:16;;;;;;;35.33;20.30;;;;;;;;;;5083514;28;20054;-63
2022/01/01 09:49:42;;;;;;;39.90;21.60;;;;;;;;;;5050267;28;20547;-62
2022/01/01 09:52:09;;;;;;;36.58;20.30;;;;;;;;;;5083297;28;20028;-61
2022/01/01 09:54:35;;;;;;;38.40;20.92;;;;;;;;;;5084888;28;20058;-61
2022/01/01 09:57:00;;;;;;;33.58;19.77;;;;;;;;;;5085171;28;20461;-61
2022/01/01 09:59:26;;;;;;;35.72;19.90;;;;;;;;;;5084873;28;20107;-62
2022/01/01 10:01:51;;;;;;;37.20;20.60;;;;;;;;;;5067298;28;20062;-62
2022/01/01 10:04:18;;;;;;;37.72;21.38;;;;;;;;;;5084733;28;20032;-61
2022/01/01 10:06:59;;;;;;;34.78;20.58;;;;;;;;;;5084708;28;20036;-61
2022/01/01 10:09:31;;;;;;;36.40;22.33;;;;;;;;;;5084864;28;20040;-62
2022/01/01 10:11:57;;;;;;;38.45;21.45;;;;;;;;;;5084940;28;20032;-61
2022/01/01 10:14:32;;;;;;;41.20;22.33;;;;;;;;;;5086170;28;20099;-60
2022/01/01 10:16:59;;;;;;;36.75;21.50;;;;;;;;;;5088407;28;20025;-61
2022/01/01 10:19:29;;;;;;;41.15;22.60;;;;;;;;;;5088727;28;20082;-62
2022/01/01 10:21:55;;;;;;;39.88;21.42;;;;;;;;;;5088367;28;20852;-61
2022/01/01 10:24:30;;;;;;;37.90;21.13;;;;;;;;;;5088229;28;20024;-62
2022/01/01 10:29:56;;;;;;;36.28;20.52;;;;;;;;;;5085893;28;20662;-61
2022/01/01 10:32:24;;;;;;;37.40;20.43;;;;;;;;;;5086787;28;20050;-61
2022/01/01 10:34:49;;;;;;;40.42;22.58;;;;;;;;;;5087600;28;20452;-61
2022/01/01 10:37:15;;;;;;;35.95;22.20;;;;;;;;;;5069858;28;20449;-60
2022/01/01 10:39:50;;;;;;;35.45;20.58;;;;;;;;;;5088029;28;20050;-62
2022/01/01 10:42:16;;;;;;;38.17;21.48;;;;;;;;;;5088185;28;20429;-62
2022/01/01 10:44:45;;;;;;;33.90;21.45;;;;;;;;;;5087676;28;20024;-61
2022/01/01 10:47:18;;;;;;;41.42;23.50;;;;;;;;;;5088213;28;20108;-62
2022/01/01 10:50:02;;;;;;;44.22;23.80;;;;;;;;;;5088409;28;20077;-62
2022/01/01 10:52:29;;;;;;;44.03;24.27;;;;;;;;;;5087638;28;20046;-61
2022/01/01 10:54:58;;;;;;;43.08;23.92;;;;;;;;;;5087601;28;20638;-62
2022/01/01 10:57:34;;;;;;;39.47;22.92;;;;;;;;;;5087612;28;20032;-61
2022/01/01 11:00:07;;;;;;;36.20;22.63;;;;;;;;;;5087663;28;20047;-62
2022/01/01 11:02:34;;;;;;;44.60;23.60;;;;;;;;;;5087181;28;20038;-61
2022/01/01 11:04:59;;;;;;;42.17;23.45;;;;;;;;;;5087156;28;20055;-62
2022/01/01 11:07:28;;;;;;;40.03;24.02;;;;;;;;;;5088538;28;20387;-61
2022/01/01 11:09:55;;;;;;;42.53;23.40;;;;;;;;;;5088541;28;20044;-60
2022/01/01 11:12:21;;;;;;;41.85;24.77;;;;;;;;;;5089499;28;20028;-62
2022/01/01 11:14:47;;;;;;;43.55;23.88;;;;;;;;;;5089353;28;20070;-61
2022/01/01 11:17:13;;;;;;;41.47;23.50;;;;;;;;;;5088330;28;20024;-61
2022/01/01 11:19:40;;;;;;;41.58;24.02;;;;;;;;;;5088754;28;20028;-61
2022/01/01 11:22:06;;;;;;;36.63;22.90;;;;;;;;;;5089375;28;20047;-61
2022/01/01 11:24:32;;;;;;;36.95;22.30;;;;;;;;;;5089209;28;20040;-63
2022/01/01 11:26:58;;;;;;;38.75;22.27;;;;;;;;;;5089529;28;20480;-63
2022/01/01 11:29:24;;;;;;;36.03;21.35;;;;;;;;;;5089431;28;20035;-61
2022/01/01 11:31:52;;;;;;;38.13;23.02;;;;;;;;;;5089378;28;20040;-61
2022/01/01 11:34:19;;;;;;;35.30;22.25;;;;;;;;;;5088914;28;20016;-60
2022/01/01 11:36:44;;;;;;;40.47;24.10;;;;;;;;;;5088593;28;20483;-61
2022/01/01 11:39:13;;;;;;;37.30;23.02;;;;;;;;;;5088901;28;20054;-62
2022/01/01 11:41:40;;;;;;;34.87;21.80;;;;;;;;;;5070923;28;20150;-61
2022/01/01 11:44:24;;;;;;;37.60;21.77;;;;;;;;;;5088996;28;20266;-60
2022/01/01 11:46:58;;;;;;;37.67;23.20;;;;;;;;;;5087759;28;20036;-62
2022/01/01 11:49:28;;;;;;;45.30;25.20;;;;;;;;;;5088766;28;20040;-60
2022/01/01 11:51:55;;;;;;;39.00;23.17;;;;;;;;;;5089007;28;20509;-60
2022/01/01 11:54:24;;;;;;;40.08;22.88;;;;;;;;;;5088802;28;20027;-60
2022/01/01 11:56:50;;;;;;;38.60;23.48;;;;;;;;;;5070590;28;20418;-61
2022/01/01 11:59:20;;;;;;;35.55;22.58;;;;;;;;;;5088654;28;20081;-62
2022/01/01 12:01:45;;;;;;;;;;;;;;;;;;5070658;28;20485;-60
2022/01/01 12:04:31;;;;;;;37.17;21.73;;;;;;;;;;5088714;28;19915;-60
2022/01/01 12:06:58;;;;;;;36.10;21.40;;;;;;;;;;5088145;28;20059;-61
2022/01/01 12:09:24;;;;;;;36.97;21.55;;;;;;;;;;5088272;28;20127;-60
2022/01/01 12:11:53;;;;;;;36.28;23.10;;;;;;;;;;5087985;28;20024;-60
2022/01/01 12:14:30;;;;;;;34.33;21.15;;;;;;;;;;5070306;28;20040;-61
2022/01/01 12:16:57;;;;;;;40.55;23.52;;;;;;;;;;5088439;28;20159;-59
2022/01/01 12:19:25;;;;;;;35.00;22.98;;;;;;;;;;5088376;28;20123;-63
2022/01/01 12:22:07;;;;;;;35.53;21.63;;;;;;;;;;5088215;28;20035;-61
2022/01/01 12:24:34;;;;;;;34.72;22.85;;;;;;;;;;5067670;28;20040;-62
2022/01/01 12:27:04;;;;;;;35.33;21.60;;;;;;;;;;5087010;28;20059;-60
2022/01/01 12:29:30;;;;;;;35.42;22.73;;;;;;;;;;5087092;28;20111;-60
2022/01/01 12:31:58;;;;;;;40.38;24.88;;;;;;;;;;5069377;28;20490;-60
2022/01/01 12:34:24;;;;;;;34.25;23.85;;;;;;;;;;5086138;28;20043;-61
2022/01/01 12:36:51;;;;;;;37.88;25.17;;;;;;;;;;5086528;28;20028;-60
2022/01/01 12:39:17;;;;;;;34.00;24.50;;;;;;;;;;5069898;28;20032;-60
2022/01/01 12:41:46;;;;;;;31.65;21.27;;;;;;;;;;5086556;28;20032;-61
2022/01/01 12:44:11;;;;;;;;;;;;;;;;;;5088536;28;20415;-61
2022/01/01 12:46:39;;;;;;;28.73;19.30;;;;;;;;;;5086806;28;19930;-63
2022/01/01 12:49:06;;;;;;;29.45;20.90;;;;;;;;;;5088932;28;21440;-61
2022/01/01 12:51:37;;;;;;;28.52;21.05;;;;;;;;;;5088544;28;20038;-62
2022/01/01 12:54:13;;;;;;;33.60;21.77;;;;;;;;;;5071580;28;20078;-60
2022/01/01 12:56:39;;;;;;;32.25;21.55;;;;;;;;;;5088564;28;20035;-61
2022/01/01 12:59:09;;;;;;;29.65;21.70;;;;;;;;;;5087726;28;20119;-64
2022/01/01 13:01:36;;;;;;;30.40;21.45;;;;;;;;;;5086486;28;20113;-63
2022/01/01 13:04:05;;;;;;;28.00;20.60;;;;;;;;;;5086243;28;20483;-62
2022/01/01 13:06:31;;;;;;;28.17;21.67;;;;;;;;;;5085035;28;20028;-61
2022/01/01 13:09:01;;;;;;;29.30;21.85;;;;;;;;;;5086655;28;20532;-63
2022/01/01 13:11:26;;;;;;;;;;;;;;;;;;5082871;28;20036;-62
2022/01/01 13:13:53;;;;;;;29.83;22.30;;;;;;;;;;5086524;28;19912;-61
2022/01/01 13:16:19;;;;;;;28.67;21.80;;;;;;;;;;5088487;28;20028;-61
2022/01/01 13:18:44;;;;;;;33.10;22.63;;;;;;;;;;5087948;28;20028;-62
2022/01/01 13:21:10;;;;;;;28.00;21.67;;;;;;;;;;5088748;28;20039;-61
2022/01/01 13:23:36;;;;;;;29.42;20.88;;;;;;;;;;5088433;28;20482;-62
2022/01/01 13:26:02;;;;;;;32.85;22.77;;;;;;;;;;5088493;28;20399;-63
2022/01/01 13:28:31;;;;;;;29.65;22.60;;;;;;;;;;5088959;28;20042;-61
2022/01/01 13:31:01;;;;;;;34.08;23.40;;;;;;;;;;5088350;28;20043;-61
2022/01/01 13:33:28;;;;;;;32.10;22.85;;;;;;;;;;5088104;28;20050;-62
2022/01/01 13:35:55;;;;;;;29.60;21.67;;;;;;;;;;5088153;28;20434;-60
2022/01/01 13:38:21;;;;;;;29.77;22.25;;;;;;;;;;5087435;28;20378;-62
2022/01/01 13:40:47;;;;;;;31.55;22.40;;;;;;;;;;5087876;28;20434;-62
2022/01/01 13:43:13;;;;;;;29.80;22.25;;;;;;;;;;5088027;28;20024;-61
2022/01/01 13:45:39;;;;;;;29.33;21.30;;;;;;;;;;5088099;28;20149;-60
2022/01/01 13:48:08;;;;;;;30.45;22.02;;;;;;;;;;5087929;28;20032;-61
2022/01/01 13:50:45;;;;;;;29.75;21.13;;;;;;;;;;5090967;28;20360;-61
2022/01/01 13:53:12;;;;;;;31.77;23.20;;;;;;;;;;5091629;28;20027;-63
2022/01/01 13:55:49;;;;;;;32.03;23.05;;;;;;;;;;5091874;28;20036;-61
2022/01/01 13:58:15;;;;;;;30.27;23.77;;;;;;;;;;5091485;28;20032;-61
2022/01/01 14:00:49;;;;;;;34.03;22.90;;;;;;;;;;5091071;28;20482;-60
2022/01/01 14:03:14;;;;;;;32.53;23.23;;;;;;;;;;5091352;28;20483;-62
2022/01/01 14:05:41;;;;;;;33.40;23.85;;;;;;;;;;5091358;28;20040;-61
2022/01/01 14:08:11;;;;;;;36.38;23.80;;;;;;;;;;5091308;28;20063;-61
2022/01/01 14:10:37;;;;;;;35.10;24.40;;;;;;;;;;5090910;28;20483;-61
2022/01/01 14:13:02;;;;;;;35.10;25.08;;;;;;;;;;5091121;28;20035;-62
2022/01/01 14:15:29;;;;;;;31.98;23.42;;;;;;;;;;5091318;28;20467;-62
2022/01/01 14:17:59;;;;;;;32.88;24.27;;;;;;;;;;5091029;28;20035;-62